UAL561 PTSA-PKWA
Flight info
| Callsign | UAL561 |
|---|---|
| Flight time | 0h 54m |
| Altitude | 35000 |
| Route | UKS STEFF |
| Aircraft | B738/M-SDE2E3FGHIRWXY/LB1 |
Departure
| Time | 2026-05-05 02:19 |
|---|---|
| Airport | Kosrae International Airport (PTSA) |
Arrival
| Time | 2026-05-05 03:13 |
|---|---|
| Airport | Bucholz Army Air Field (PKWA) |
| Time | Latitude | Longitude | Altitude | Speed | Heading |
|---|---|---|---|---|---|
| 2026-05-05 02:07 | 5.35312 | 162.95545 | 36 ft | 0 kts | 111° |
| 2026-05-05 02:16 | 5.35311 | 162.95549 | 27 ft | 2 kts | 110° |
| 2026-05-05 02:16 | 5.35334 | 162.95570 | 27 ft | 7 kts | 7° |
| 2026-05-05 02:16 | 5.35383 | 162.95563 | 27 ft | 7 kts | 340° |
| 2026-05-05 02:16 | 5.35391 | 162.95559 | 27 ft | 0 kts | 334° |
| 2026-05-05 02:17 | 5.35393 | 162.95558 | 27 ft | 3 kts | 333° |
| 2026-05-05 02:17 | 5.35423 | 162.95536 | 27 ft | 9 kts | 313° |
| 2026-05-05 02:17 | 5.35418 | 162.95447 | 28 ft | 16 kts | 238° |
| 2026-05-05 02:17 | 5.35351 | 162.95346 | 29 ft | 20 kts | 236° |
| 2026-05-05 02:18 | 5.35302 | 162.95237 | 29 ft | 15 kts | 254° |
| 2026-05-05 02:18 | 5.35275 | 162.95198 | 30 ft | 1 kts | 174° |
| 2026-05-05 02:18 | 5.35273 | 162.95214 | 30 ft | 5 kts | 85° |
| 2026-05-05 02:18 | 5.35369 | 162.95364 | 29 ft | 65 kts | 56° |
| 2026-05-05 02:19 | 5.35789 | 162.95977 | 28 ft | 145 kts | 56° |
| 2026-05-05 02:19 | 5.36447 | 162.96929 | 597 ft | 172 kts | 57° |
| 2026-05-05 02:19 | 5.37139 | 162.97866 | 1777 ft | 168 kts | 57° |
| 2026-05-05 02:19 | 5.37861 | 162.98872 | 2344 ft | 192 kts | 57° |
| 2026-05-05 02:20 | 5.38700 | 163.00053 | 2605 ft | 221 kts | 57° |
| 2026-05-05 02:20 | 5.39639 | 163.01375 | 2936 ft | 245 kts | 58° |
| 2026-05-05 02:20 | 5.40655 | 163.02801 | 3640 ft | 255 kts | 57° |
| 2026-05-05 02:20 | 5.41692 | 163.04253 | 4662 ft | 256 kts | 58° |
| 2026-05-05 02:21 | 5.42743 | 163.05724 | 5526 ft | 261 kts | 57° |
| 2026-05-05 02:21 | 5.43807 | 163.07213 | 6428 ft | 266 kts | 57° |
| 2026-05-05 02:21 | 5.44886 | 163.08722 | 7292 ft | 267 kts | 57° |
| 2026-05-05 02:21 | 5.45988 | 163.10268 | 7994 ft | 278 kts | 56° |
| 2026-05-05 02:22 | 5.47119 | 163.11852 | 8881 ft | 278 kts | 56° |
| 2026-05-05 02:22 | 5.48243 | 163.13426 | 9847 ft | 278 kts | 56° |
| 2026-05-05 02:22 | 5.49393 | 163.15040 | 10374 ft | 294 kts | 56° |
| 2026-05-05 02:22 | 5.50617 | 163.16758 | 10559 ft | 319 kts | 56° |
| 2026-05-05 02:23 | 5.51974 | 163.18662 | 10733 ft | 343 kts | 55° |
| 2026-05-05 02:23 | 5.53397 | 163.20658 | 10996 ft | 360 kts | 55° |
| 2026-05-05 02:23 | 5.54858 | 163.22705 | 11721 ft | 359 kts | 55° |
| 2026-05-05 02:23 | 5.56315 | 163.24745 | 12477 ft | 361 kts | 54° |
| 2026-05-05 02:24 | 5.57792 | 163.26815 | 13046 ft | 367 kts | 54° |
| 2026-05-05 02:24 | 5.59280 | 163.28901 | 13802 ft | 366 kts | 54° |
| 2026-05-05 02:24 | 5.60774 | 163.30995 | 14278 ft | 373 kts | 54° |
| 2026-05-05 02:24 | 5.62294 | 163.33127 | 14813 ft | 378 kts | 54° |
| 2026-05-05 02:25 | 5.63822 | 163.35271 | 15444 ft | 379 kts | 54° |
| 2026-05-05 02:25 | 5.65370 | 163.37444 | 15956 ft | 383 kts | 53° |
| 2026-05-05 02:25 | 5.66918 | 163.39617 | 16606 ft | 384 kts | 53° |
| 2026-05-05 02:25 | 5.68479 | 163.41807 | 17035 ft | 389 kts | 53° |
| 2026-05-05 02:26 | 5.70025 | 163.43978 | 18173 ft | 372 kts | 53° |
| 2026-05-05 02:26 | 5.71514 | 163.46071 | 18975 ft | 369 kts | 54° |
| 2026-05-05 02:26 | 5.73014 | 163.48176 | 19130 ft | 383 kts | 53° |
| 2026-05-05 02:26 | 5.74613 | 163.50421 | 19243 ft | 397 kts | 54° |
| 2026-05-05 02:27 | 5.76221 | 163.52678 | 19385 ft | 408 kts | 54° |
| 2026-05-05 02:27 | 5.77877 | 163.55004 | 19823 ft | 409 kts | 54° |
| 2026-05-05 02:27 | 5.79541 | 163.57342 | 20117 ft | 415 kts | 54° |
| 2026-05-05 02:27 | 5.81230 | 163.59715 | 20493 ft | 417 kts | 54° |
| 2026-05-05 02:28 | 5.82916 | 163.62085 | 20881 ft | 420 kts | 54° |
| 2026-05-05 02:28 | 5.84629 | 163.64492 | 21155 ft | 425 kts | 54° |
| 2026-05-05 02:28 | 5.86361 | 163.66927 | 21738 ft | 422 kts | 54° |
| 2026-05-05 02:28 | 5.88059 | 163.69314 | 21953 ft | 429 kts | 55° |
| 2026-05-05 02:29 | 5.89823 | 163.71793 | 22295 ft | 431 kts | 55° |
| 2026-05-05 02:29 | 5.91552 | 163.74225 | 22545 ft | 436 kts | 55° |
| 2026-05-05 02:29 | 5.93340 | 163.76739 | 22926 ft | 437 kts | 56° |
| 2026-05-05 02:29 | 5.95110 | 163.79229 | 23201 ft | 440 kts | 56° |
| 2026-05-05 02:30 | 5.96898 | 163.81743 | 23483 ft | 443 kts | 56° |
| 2026-05-05 02:30 | 5.98689 | 163.84263 | 23730 ft | 445 kts | 56° |
| 2026-05-05 02:30 | 6.00495 | 163.86804 | 23974 ft | 447 kts | 56° |
| 2026-05-05 02:30 | 6.02304 | 163.89348 | 24234 ft | 449 kts | 56° |
| 2026-05-05 02:31 | 6.04122 | 163.91907 | 24449 ft | 451 kts | 56° |
| 2026-05-05 02:31 | 6.05922 | 163.94440 | 24707 ft | 453 kts | 56° |
| 2026-05-05 02:31 | 6.07758 | 163.97024 | 24909 ft | 455 kts | 56° |
| 2026-05-05 02:31 | 6.09600 | 163.99617 | 25155 ft | 457 kts | 56° |
| 2026-05-05 02:32 | 6.11449 | 164.02220 | 25439 ft | 457 kts | 56° |
| 2026-05-05 02:32 | 6.13287 | 164.04808 | 25815 ft | 455 kts | 56° |
| 2026-05-05 02:32 | 6.15134 | 164.07410 | 25926 ft | 460 kts | 56° |
| 2026-05-05 02:32 | 6.16992 | 164.10027 | 26129 ft | 461 kts | 56° |
| 2026-05-05 02:33 | 6.18861 | 164.12659 | 26319 ft | 464 kts | 56° |
| 2026-05-05 02:33 | 6.20734 | 164.15299 | 26567 ft | 464 kts | 56° |
| 2026-05-05 02:33 | 6.22612 | 164.17945 | 26739 ft | 467 kts | 56° |
| 2026-05-05 02:33 | 6.24494 | 164.20598 | 27037 ft | 465 kts | 56° |
| 2026-05-05 02:34 | 6.26374 | 164.23246 | 27312 ft | 465 kts | 56° |
| 2026-05-05 02:34 | 6.28248 | 164.25889 | 27721 ft | 461 kts | 57° |
| 2026-05-05 02:34 | 6.30108 | 164.28509 | 28051 ft | 461 kts | 57° |
| 2026-05-05 02:34 | 6.31973 | 164.31139 | 28260 ft | 463 kts | 57° |
| 2026-05-05 02:35 | 6.33842 | 164.33776 | 28470 ft | 464 kts | 57° |
| 2026-05-05 02:35 | 6.35715 | 164.36418 | 28842 ft | 462 kts | 57° |
| 2026-05-05 02:35 | 6.37567 | 164.39030 | 29342 ft | 457 kts | 57° |
| 2026-05-05 02:35 | 6.39413 | 164.41634 | 29657 ft | 457 kts | 57° |
| 2026-05-05 02:36 | 6.41262 | 164.44243 | 29877 ft | 459 kts | 57° |
| 2026-05-05 02:36 | 6.43116 | 164.46862 | 30095 ft | 460 kts | 57° |
| 2026-05-05 02:36 | 6.44970 | 164.49478 | 30352 ft | 459 kts | 57° |
| 2026-05-05 02:36 | 6.46821 | 164.52093 | 30603 ft | 459 kts | 57° |
| 2026-05-05 02:37 | 6.48673 | 164.54707 | 30831 ft | 459 kts | 57° |
| 2026-05-05 02:37 | 6.50526 | 164.57324 | 31060 ft | 460 kts | 57° |
| 2026-05-05 02:37 | 6.52378 | 164.59940 | 31318 ft | 459 kts | 57° |
| 2026-05-05 02:37 | 6.54232 | 164.62559 | 31565 ft | 460 kts | 57° |
| 2026-05-05 02:38 | 6.56086 | 164.65178 | 31820 ft | 460 kts | 57° |
| 2026-05-05 02:38 | 6.57938 | 164.67796 | 32073 ft | 460 kts | 57° |
| 2026-05-05 02:38 | 6.59795 | 164.70419 | 32329 ft | 460 kts | 57° |
| 2026-05-05 02:38 | 6.61651 | 164.73043 | 32535 ft | 462 kts | 57° |
| 2026-05-05 02:39 | 6.63521 | 164.75687 | 32636 ft | 466 kts | 57° |
| 2026-05-05 02:39 | 6.65402 | 164.78348 | 32873 ft | 466 kts | 57° |
| 2026-05-05 02:39 | 6.67277 | 164.80999 | 33222 ft | 464 kts | 57° |
| 2026-05-05 02:39 | 6.69146 | 164.83640 | 33549 ft | 463 kts | 57° |
| 2026-05-05 02:40 | 6.71013 | 164.86281 | 33794 ft | 464 kts | 57° |
| 2026-05-05 02:40 | 6.72885 | 164.88929 | 34006 ft | 465 kts | 57° |
| 2026-05-05 02:40 | 6.74759 | 164.91582 | 34260 ft | 464 kts | 57° |
| 2026-05-05 02:40 | 6.76627 | 164.94225 | 34545 ft | 463 kts | 57° |
| 2026-05-05 02:41 | 6.78493 | 164.96866 | 34820 ft | 462 kts | 57° |
| 2026-05-05 02:41 | 6.82243 | 165.02176 | 34867 ft | 467 kts | 57° |
| 2026-05-05 02:42 | 6.86002 | 165.07499 | 34857 ft | 464 kts | 57° |
| 2026-05-05 02:42 | 6.89736 | 165.12790 | 34865 ft | 465 kts | 57° |
| 2026-05-05 02:43 | 6.93497 | 165.18122 | 34871 ft | 469 kts | 57° |
| 2026-05-05 02:43 | 6.97284 | 165.23491 | 34869 ft | 472 kts | 57° |
| 2026-05-05 02:44 | 7.01126 | 165.28864 | 34866 ft | 474 kts | 56° |
| 2026-05-05 02:44 | 7.05068 | 165.34193 | 34863 ft | 475 kts | 55° |
| 2026-05-05 02:45 | 7.09021 | 165.39520 | 34860 ft | 474 kts | 56° |
| 2026-05-05 02:45 | 7.12956 | 165.44847 | 34857 ft | 473 kts | 56° |
| 2026-05-05 02:46 | 7.16870 | 165.50162 | 34856 ft | 472 kts | 56° |
| 2026-05-05 02:46 | 7.20766 | 165.55459 | 34858 ft | 470 kts | 56° |
| 2026-05-05 02:47 | 7.24646 | 165.60736 | 34862 ft | 468 kts | 56° |
| 2026-05-05 02:47 | 7.28493 | 165.65969 | 34858 ft | 467 kts | 56° |
| 2026-05-05 02:48 | 7.32353 | 165.71223 | 34860 ft | 466 kts | 56° |
| 2026-05-05 02:48 | 7.36211 | 165.76474 | 34860 ft | 466 kts | 56° |
| 2026-05-05 02:49 | 7.40070 | 165.81728 | 34855 ft | 467 kts | 56° |
| 2026-05-05 02:49 | 7.43935 | 165.86992 | 34859 ft | 468 kts | 56° |
| 2026-05-05 02:50 | 7.47836 | 165.92307 | 34857 ft | 469 kts | 55° |
| 2026-05-05 02:50 | 7.51695 | 165.97566 | 34855 ft | 471 kts | 56° |
| 2026-05-05 02:51 | 7.55592 | 166.02880 | 34859 ft | 472 kts | 56° |
| 2026-05-05 02:51 | 7.59498 | 166.08207 | 34856 ft | 473 kts | 55° |
| 2026-05-05 02:52 | 7.63411 | 166.13546 | 34854 ft | 474 kts | 56° |
| 2026-05-05 02:52 | 7.67345 | 166.18916 | 34272 ft | 480 kts | 55° |
| 2026-05-05 02:52 | 7.68689 | 166.20751 | 33904 ft | 479 kts | 55° |
| 2026-05-05 02:53 | 7.70668 | 166.23452 | 33234 ft | 480 kts | 55° |
| 2026-05-05 02:53 | 7.72651 | 166.26160 | 32552 ft | 480 kts | 55° |
| 2026-05-05 02:53 | 7.74635 | 166.28869 | 31867 ft | 481 kts | 55° |
| 2026-05-05 02:53 | 7.76622 | 166.31584 | 31167 ft | 482 kts | 55° |
| 2026-05-05 02:54 | 7.78613 | 166.34304 | 30431 ft | 483 kts | 55° |
| 2026-05-05 02:54 | 7.80613 | 166.37037 | 29630 ft | 485 kts | 56° |
| 2026-05-05 02:54 | 7.82616 | 166.39776 | 28756 ft | 485 kts | 55° |
| 2026-05-05 02:54 | 7.84615 | 166.42509 | 28005 ft | 483 kts | 55° |
| 2026-05-05 02:55 | 7.86594 | 166.45215 | 27429 ft | 476 kts | 54° |
| 2026-05-05 02:55 | 7.88549 | 166.47887 | 26836 ft | 471 kts | 54° |
| 2026-05-05 02:55 | 7.90481 | 166.50529 | 26253 ft | 465 kts | 54° |
| 2026-05-05 02:55 | 7.92392 | 166.53143 | 25677 ft | 460 kts | 54° |
| 2026-05-05 02:56 | 7.94281 | 166.55728 | 25098 ft | 456 kts | 54° |
| 2026-05-05 02:56 | 7.96155 | 166.58293 | 24505 ft | 452 kts | 53° |
| 2026-05-05 02:56 | 7.98012 | 166.60836 | 23922 ft | 448 kts | 53° |
| 2026-05-05 02:56 | 7.99856 | 166.63360 | 23340 ft | 445 kts | 53° |
| 2026-05-05 02:57 | 8.01657 | 166.65826 | 22694 ft | 440 kts | 53° |
| 2026-05-05 02:57 | 8.03485 | 166.68330 | 22088 ft | 435 kts | 53° |
| 2026-05-05 02:57 | 8.05247 | 166.70742 | 21521 ft | 430 kts | 54° |
| 2026-05-05 02:57 | 8.07009 | 166.73156 | 20956 ft | 425 kts | 54° |
| 2026-05-05 02:58 | 8.08749 | 166.75539 | 20404 ft | 420 kts | 54° |
| 2026-05-05 02:58 | 8.10471 | 166.77899 | 19854 ft | 415 kts | 54° |
| 2026-05-05 02:58 | 8.12175 | 166.80234 | 19292 ft | 412 kts | 54° |
| 2026-05-05 02:58 | 8.13865 | 166.82551 | 18739 ft | 408 kts | 54° |
| 2026-05-05 02:59 | 8.15541 | 166.84849 | 18180 ft | 406 kts | 55° |
| 2026-05-05 02:59 | 8.17208 | 166.87134 | 17561 ft | 402 kts | 55° |
| 2026-05-05 02:59 | 8.18859 | 166.89399 | 16999 ft | 398 kts | 55° |
| 2026-05-05 02:59 | 8.20492 | 166.91639 | 16455 ft | 394 kts | 55° |
| 2026-05-05 03:00 | 8.22107 | 166.93854 | 15923 ft | 390 kts | 55° |
| 2026-05-05 03:00 | 8.23706 | 166.96048 | 15396 ft | 386 kts | 55° |
| 2026-05-05 03:00 | 8.25287 | 166.98218 | 14887 ft | 382 kts | 55° |
| 2026-05-05 03:00 | 8.26852 | 167.00367 | 14373 ft | 378 kts | 55° |
| 2026-05-05 03:01 | 8.28405 | 167.02499 | 13846 ft | 375 kts | 55° |
| 2026-05-05 03:01 | 8.29945 | 167.04612 | 13296 ft | 372 kts | 55° |
| 2026-05-05 03:01 | 8.31467 | 167.06703 | 12750 ft | 368 kts | 55° |
| 2026-05-05 03:01 | 8.32975 | 167.08774 | 12227 ft | 364 kts | 56° |
| 2026-05-05 03:02 | 8.34467 | 167.10823 | 11723 ft | 360 kts | 56° |
| 2026-05-05 03:02 | 8.35943 | 167.12851 | 11221 ft | 357 kts | 56° |
| 2026-05-05 03:02 | 8.37406 | 167.14861 | 10798 ft | 352 kts | 56° |
| 2026-05-05 03:02 | 8.38826 | 167.16810 | 10660 ft | 338 kts | 56° |
| 2026-05-05 03:03 | 8.40198 | 167.18694 | 10501 ft | 327 kts | 56° |
| 2026-05-05 03:03 | 8.41523 | 167.20514 | 10362 ft | 316 kts | 56° |
| 2026-05-05 03:03 | 8.42805 | 167.22275 | 10220 ft | 306 kts | 56° |
| 2026-05-05 03:03 | 8.44047 | 167.23983 | 10097 ft | 297 kts | 56° |
| 2026-05-05 03:04 | 8.45244 | 167.25628 | 10079 ft | 284 kts | 57° |
| 2026-05-05 03:04 | 8.46394 | 167.27210 | 9955 ft | 276 kts | 56° |
| 2026-05-05 03:04 | 8.47526 | 167.28769 | 9682 ft | 275 kts | 57° |
| 2026-05-05 03:04 | 8.48652 | 167.30320 | 9398 ft | 273 kts | 57° |
| 2026-05-05 03:05 | 8.49769 | 167.31859 | 9107 ft | 271 kts | 57° |
| 2026-05-05 03:05 | 8.50881 | 167.33390 | 8814 ft | 270 kts | 57° |
| 2026-05-05 03:05 | 8.51988 | 167.34915 | 8531 ft | 268 kts | 57° |
| 2026-05-05 03:05 | 8.53073 | 167.36409 | 8157 ft | 266 kts | 56° |
| 2026-05-05 03:06 | 8.54154 | 167.37895 | 7859 ft | 259 kts | 57° |
| 2026-05-05 03:06 | 8.55209 | 167.39348 | 7584 ft | 255 kts | 57° |
| 2026-05-05 03:06 | 8.56258 | 167.40792 | 7316 ft | 255 kts | 57° |
| 2026-05-05 03:06 | 8.57305 | 167.42235 | 6971 ft | 256 kts | 57° |
| 2026-05-05 03:07 | 8.58378 | 167.43715 | 6591 ft | 260 kts | 57° |
| 2026-05-05 03:07 | 8.59427 | 167.45158 | 6511 ft | 250 kts | 57° |
| 2026-05-05 03:07 | 8.60444 | 167.46559 | 6192 ft | 246 kts | 57° |
| 2026-05-05 03:07 | 8.61452 | 167.47948 | 5697 ft | 244 kts | 57° |
| 2026-05-05 03:08 | 8.62452 | 167.49326 | 5128 ft | 243 kts | 57° |
| 2026-05-05 03:08 | 8.63449 | 167.50700 | 4592 ft | 242 kts | 57° |
| 2026-05-05 03:08 | 8.64434 | 167.52057 | 4083 ft | 237 kts | 57° |
| 2026-05-05 03:08 | 8.65401 | 167.53388 | 3530 ft | 234 kts | 57° |
| 2026-05-05 03:09 | 8.66318 | 167.54736 | 2929 ft | 230 kts | 65° |
| 2026-05-05 03:09 | 8.66807 | 167.56205 | 2667 ft | 209 kts | 75° |
| 2026-05-05 03:09 | 8.67204 | 167.57548 | 2482 ft | 191 kts | 73° |
| 2026-05-05 03:09 | 8.67579 | 167.58778 | 2477 ft | 182 kts | 73° |
| 2026-05-05 03:10 | 8.67959 | 167.60018 | 2394 ft | 186 kts | 73° |
| 2026-05-05 03:10 | 8.68341 | 167.61260 | 2176 ft | 182 kts | 74° |
| 2026-05-05 03:10 | 8.68711 | 167.62460 | 1954 ft | 176 kts | 74° |
| 2026-05-05 03:10 | 8.69070 | 167.63624 | 1727 ft | 171 kts | 74° |
| 2026-05-05 03:11 | 8.69412 | 167.64729 | 1499 ft | 158 kts | 74° |
| 2026-05-05 03:11 | 8.69717 | 167.65722 | 1342 ft | 137 kts | 72° |
| 2026-05-05 03:11 | 8.69981 | 167.66578 | 1175 ft | 123 kts | 72° |
| 2026-05-05 03:11 | 8.70233 | 167.67393 | 1012 ft | 120 kts | 72° |
| 2026-05-05 03:12 | 8.70488 | 167.68218 | 854 ft | 123 kts | 73° |
| 2026-05-05 03:12 | 8.70742 | 167.69035 | 745 ft | 120 kts | 72° |
| 2026-05-05 03:12 | 8.71004 | 167.69827 | 616 ft | 120 kts | 73° |
| 2026-05-05 03:12 | 8.71245 | 167.70645 | 440 ft | 121 kts | 74° |
| 2026-05-05 03:13 | 8.71480 | 167.71462 | 236 ft | 122 kts | 71° |
| 2026-05-05 03:13 | 8.71738 | 167.72267 | 1 ft | 119 kts | 73° |
| 2026-05-05 03:13 | 8.71961 | 167.72999 | -42 ft | 95 kts | 72° |
| 2026-05-05 03:13 | 8.72093 | 167.73427 | -52 ft | 38 kts | 73° |
| 2026-05-05 03:14 | 8.72168 | 167.73672 | -48 ft | 34 kts | 70° |
| 2026-05-05 03:14 | 8.72232 | 167.73878 | -41 ft | 21 kts | 72° |
| 2026-05-05 03:14 | 8.72270 | 167.73966 | -44 ft | 14 kts | 40° |
| 2026-05-05 03:14 | 8.72357 | 167.73966 | -47 ft | 13 kts | 345° |
| 2026-05-05 03:15 | 8.72443 | 167.73943 | -43 ft | 7 kts | 346° |
| 2026-05-05 03:15 | 8.72449 | 167.73942 | -42 ft | 7 kts | 346° |
| 2026-05-05 03:15 | 8.72516 | 167.73921 | -42 ft | 11 kts | 342° |
| 2026-05-05 03:15 | 8.72592 | 167.73930 | -37 ft | 12 kts | 29° |
| 2026-05-05 03:16 | 8.72665 | 167.73970 | -37 ft | 12 kts | 25° |
| 2026-05-05 03:16 | 8.72724 | 167.74019 | -53 ft | 12 kts | 82° |
| 2026-05-05 03:16 | 8.72698 | 167.74090 | -40 ft | 4 kts | 120° |